首页
METAR-TAF:

METAR-TAF

机场 :

朗芒芽地, 菲律宾

纬度: 09-20-01N, 经度: 123-18-02E, 海拔: 5米

当前天气观测

该预报发布于22分钟前的00:00 UTC
风速6节,风向西北
温度 26°C
湿度 89%
气压 1012 hPa
能見度: 9000
散云层高于1500英尺
阴天层高于7000英尺
附近有阵雨

METAR: RPVD 190000Z 32006KT 9000 VCSH SCT015 OVC070 26/24 Q1012 RMK A2988 VCSH NE-E-SE

时间: 08:22 (00:22 UTC)

预报

该预报发布于1小时和22分钟前的23:00 UTC
预报有效从19日的 00点(UTC)到 19日的 24点(UTC)
风速8节,风向北转东北
能見度: 9000
散云层高于1500英尺
多云层高于7000英尺
小雨
短暂存在
从 19日的 00点(UTC)到 19日的 06点(UTC)
风速15节,风向北转东北
能見度: 7000
少量云层高于1400英尺, 积雨云.
散云层高于1500英尺
阴天层高于7000英尺
阵雨

TAF: RPVD 182300Z 1900/1924 02008KT 9000 -RA SCT015 BKN070 TEMPO 1900/1906 02015KT 7000 SHRA FEW014CB SCT015 OVC070

超过4000个机场的气象观测和天气预报(METAR&TAF报告)。

可查询的气象台以黄色和红色小点在地图上表示。

将鼠标移到小点上方,可查看气象台名称。

然后点击查看天气观测和预报。

如需切换地图:点击带黑十字的绿色按钮放大地图;点击带横线的绿色按钮缩小地图;或者点击绿色箭头查看邻近地区的地图。


METAR-TAF: